createdAt,value
2019-03-20T00:01:15.902Z,7.27
2019-03-20T00:03:20.264Z,6.53
2019-03-20T00:05:24.672Z,7.00
2019-03-20T00:07:34.047Z,9.80
2019-03-20T00:09:42.902Z,10.80
2019-03-20T00:11:47.407Z,10.03
2019-03-20T00:13:51.781Z,8.20
2019-03-20T00:15:56.227Z,7.23
2019-03-20T00:18:00.651Z,11.13
2019-03-20T00:20:06.127Z,7.27
2019-03-20T00:22:10.702Z,12.23
2019-03-20T00:24:15.096Z,6.30
2019-03-20T00:26:19.514Z,11.93
2019-03-20T00:28:24.235Z,12.83
2019-03-20T00:30:28.617Z,6.83
2019-03-20T00:32:33.061Z,11.00
2019-03-20T00:34:37.471Z,5.00
2019-03-20T00:36:41.914Z,9.93
2019-03-20T00:38:46.386Z,10.87
2019-03-20T00:40:50.764Z,12.80
2019-03-20T00:42:55.295Z,11.73
2019-03-20T00:44:59.675Z,12.27
2019-03-20T00:47:04.168Z,10.73
2019-03-20T00:49:08.582Z,15.30
2019-03-20T00:51:12.975Z,9.10
2019-03-20T00:53:17.358Z,11.23
2019-03-20T00:55:21.730Z,9.27
2019-03-20T00:57:26.120Z,9.83
2019-03-20T00:59:30.502Z,9.13
2019-03-20T01:01:34.951Z,11.47
2019-03-20T01:03:39.320Z,8.17
2019-03-20T01:05:43.743Z,9.70
2019-03-20T01:07:48.191Z,10.57
2019-03-20T01:09:52.652Z,7.80
2019-03-20T01:11:57.025Z,10.90
2019-03-20T01:14:01.407Z,8.70
2019-03-20T01:16:05.879Z,10.17
2019-03-20T01:18:10.243Z,8.60
2019-03-20T01:20:16.359Z,13.80
2019-03-20T01:22:20.772Z,6.53
2019-03-20T01:24:25.192Z,7.90
2019-03-20T01:26:29.545Z,8.50
2019-03-20T01:28:33.887Z,9.57
2019-03-20T01:30:38.551Z,8.33
2019-03-20T01:32:42.945Z,7.97
2019-03-20T01:34:47.321Z,8.97
2019-03-20T01:36:51.842Z,12.80
2019-03-20T01:38:56.217Z,10.43
2019-03-20T01:41:00.575Z,11.57
2019-03-20T01:43:05.147Z,11.03
2019-03-20T01:45:10.182Z,9.17
2019-03-20T01:47:14.568Z,10.40
2019-03-20T01:49:18.906Z,11.03
2019-03-20T01:51:23.350Z,10.43
2019-03-20T01:53:27.717Z,14.80
2019-03-20T01:55:32.050Z,9.77
2019-03-20T01:57:36.587Z,14.40
2019-03-20T01:59:40.945Z,13.50
2019-03-20T02:01:45.352Z,20.13
2019-03-20T02:03:49.747Z,17.60
2019-03-20T02:05:54.084Z,11.40
2019-03-20T02:07:58.484Z,15.67
2019-03-20T02:10:02.917Z,13.27
2019-03-20T02:12:07.305Z,8.73
2019-03-20T02:14:11.653Z,10.90
2019-03-20T02:16:16.070Z,15.77
2019-03-20T02:18:20.483Z,11.73
2019-03-20T02:20:24.875Z,10.10
2019-03-20T02:22:29.395Z,12.43
2019-03-20T02:24:33.803Z,9.07
2019-03-20T02:26:38.166Z,8.73
2019-03-20T02:28:42.507Z,7.03
2019-03-20T02:30:46.933Z,8.90
2019-03-20T02:32:51.397Z,9.33
2019-03-20T02:34:55.847Z,13.40
2019-03-20T02:37:00.287Z,11.40
2019-03-20T02:39:06.100Z,11.80
2019-03-20T02:41:10.555Z,8.30
2019-03-20T02:43:14.947Z,11.57
2019-03-20T02:45:19.423Z,9.57
2019-03-20T02:47:23.814Z,10.03
2019-03-20T02:49:28.239Z,9.57
2019-03-20T02:51:32.638Z,11.77
2019-03-20T02:53:37.008Z,8.97
2019-03-20T02:55:41.417Z,8.53
2019-03-20T02:57:45.803Z,7.17
2019-03-20T02:59:50.273Z,13.67
2019-03-20T03:01:54.680Z,12.70
2019-03-20T03:03:59.096Z,14.57
2019-03-20T03:06:06.993Z,9.67
2019-03-20T03:08:08.038Z,12.43
2019-03-20T03:10:12.706Z,11.03
2019-03-20T03:12:17.081Z,7.97
2019-03-20T03:14:21.491Z,14.03
2019-03-20T03:16:25.917Z,11.03
2019-03-20T03:18:30.289Z,11.10
2019-03-20T03:20:34.671Z,9.00
2019-03-20T03:22:39.074Z,10.10
2019-03-20T03:24:43.551Z,10.70
2019-03-20T03:26:47.972Z,12.07
2019-03-20T03:28:52.357Z,10.10
2019-03-20T03:30:56.731Z,10.60
2019-03-20T03:33:01.161Z,9.27
2019-03-20T03:35:05.885Z,15.00
2019-03-20T03:37:10.413Z,10.60
2019-03-20T03:39:14.882Z,14.97
2019-03-20T03:41:19.299Z,10.50
2019-03-20T03:43:24.442Z,12.47
2019-03-20T03:45:28.325Z,12.17
2019-03-20T03:47:32.733Z,13.70
2019-03-20T03:49:37.195Z,15.60
2019-03-20T03:51:41.655Z,16.17
2019-03-20T03:53:45.935Z,15.37
2019-03-20T03:55:50.334Z,13.77
2019-03-20T03:57:54.927Z,16.53
2019-03-20T03:59:59.335Z,11.77
2019-03-20T04:02:03.740Z,11.60
2019-03-20T04:04:08.387Z,15.13
2019-03-20T04:06:12.899Z,14.33
2019-03-20T04:08:17.434Z,11.87
2019-03-20T04:10:21.893Z,15.97
2019-03-20T04:12:26.314Z,17.00
2019-03-20T04:14:30.730Z,16.13
2019-03-20T04:16:35.088Z,15.87
2019-03-20T04:18:39.482Z,24.03
2019-03-20T04:20:43.997Z,15.23
2019-03-20T04:22:48.501Z,16.03
2019-03-20T04:24:52.942Z,16.20
2019-03-20T04:26:57.547Z,14.33
2019-03-20T04:29:02.305Z,20.97
2019-03-20T04:31:06.596Z,14.73
2019-03-20T04:33:11.053Z,14.13
2019-03-20T04:35:15.613Z,15.03
2019-03-20T04:37:20.042Z,10.30
2019-03-20T04:39:24.415Z,17.53
2019-03-20T04:41:28.891Z,13.90
2019-03-20T04:43:33.309Z,14.50
2019-03-20T04:45:37.726Z,12.00
2019-03-20T04:47:42.171Z,13.37
2019-03-20T04:49:46.634Z,15.57
2019-03-20T04:51:51.038Z,14.40
2019-03-20T04:53:55.506Z,15.43
2019-03-20T04:55:59.915Z,14.87
2019-03-20T04:58:04.390Z,12.80
2019-03-20T05:00:11.382Z,12.53
2019-03-20T05:02:15.859Z,12.47
2019-03-20T05:04:20.227Z,13.67
2019-03-20T05:06:24.707Z,18.73
2019-03-20T05:08:29.073Z,10.93
2019-03-20T05:10:33.430Z,16.53
2019-03-20T05:12:37.995Z,21.10
2019-03-20T05:14:43.379Z,19.27
2019-03-20T05:16:47.767Z,15.43
2019-03-20T05:18:52.195Z,30.60
2019-03-20T05:20:56.527Z,18.47
2019-03-20T05:23:00.928Z,16.97
2019-03-20T05:25:06.112Z,20.40
2019-03-20T05:27:10.573Z,23.43
2019-03-20T05:29:14.941Z,20.20
2019-03-20T05:31:19.345Z,25.97
2019-03-20T05:33:23.776Z,23.63
2019-03-20T05:35:28.126Z,17.80
2019-03-20T05:37:32.530Z,20.60
2019-03-20T05:39:36.941Z,17.63
2019-03-20T05:41:41.381Z,20.60
2019-03-20T05:43:45.806Z,19.30
2019-03-20T05:45:50.218Z,19.33
2019-03-20T05:47:54.626Z,19.33
2019-03-20T05:49:59.046Z,17.10
2019-03-20T05:52:03.461Z,17.30
2019-03-20T05:54:07.836Z,24.70
2019-03-20T05:56:12.151Z,17.70
2019-03-20T05:58:16.552Z,16.17
2019-03-20T06:00:20.979Z,18.47
2019-03-20T06:02:25.854Z,17.87
2019-03-20T06:04:29.731Z,21.80
2019-03-20T06:06:34.205Z,22.80
2019-03-20T06:08:38.595Z,21.07
2019-03-20T06:10:42.979Z,14.00
2019-03-20T06:12:47.417Z,21.07
2019-03-20T06:14:51.834Z,23.83
2019-03-20T06:16:56.154Z,22.20
2019-03-20T06:19:00.538Z,23.37
2019-03-20T06:21:05.003Z,17.47
2019-03-20T06:23:11.124Z,21.57
2019-03-20T06:25:13.921Z,16.70
2019-03-20T06:27:18.343Z,24.07
2019-03-20T06:29:22.762Z,19.53
2019-03-20T06:31:27.166Z,19.13
2019-03-20T06:33:31.620Z,19.73
2019-03-20T06:35:36.036Z,19.57
2019-03-20T06:37:40.429Z,23.53
2019-03-20T06:39:44.886Z,19.07
2019-03-20T06:41:49.277Z,12.80
2019-03-20T06:43:53.695Z,21.30
2019-03-20T06:45:58.115Z,20.07
2019-03-20T06:48:02.528Z,16.73
2019-03-20T06:50:09.758Z,24.43
2019-03-20T06:52:14.222Z,24.53
2019-03-20T06:54:18.657Z,17.73
2019-03-20T06:56:23.038Z,20.10
2019-03-20T06:58:27.460Z,20.60
2019-03-20T07:00:49.619Z,26.27
2019-03-20T07:02:54.056Z,19.30
2019-03-20T07:05:09.322Z,14.70
2019-03-20T07:07:26.447Z,11.73
2019-03-20T07:09:41.198Z,16.93
2019-03-20T07:11:45.808Z,17.37
2019-03-20T07:13:50.725Z,7.47
2019-03-20T07:15:54.628Z,6.10
2019-03-20T07:17:59.044Z,14.00
2019-03-20T07:20:03.495Z,6.27
2019-03-20T07:22:07.887Z,13.53
2019-03-20T07:24:12.328Z,20.83
2019-03-20T07:26:16.728Z,18.10
2019-03-20T07:28:21.194Z,11.40
2019-03-20T07:30:25.546Z,10.63
2019-03-20T07:32:30.126Z,15.13
2019-03-20T07:34:34.399Z,12.50
2019-03-20T07:36:38.770Z,11.07
2019-03-20T07:38:43.191Z,6.60
2019-03-20T07:40:47.641Z,8.77
2019-03-20T07:42:52.010Z,13.93
2019-03-20T07:44:56.372Z,10.07
2019-03-20T07:47:00.814Z,15.07
2019-03-20T07:49:06.134Z,15.10
2019-03-20T07:51:10.502Z,11.63
2019-03-20T07:53:14.947Z,14.13
2019-03-20T07:55:19.362Z,13.33
2019-03-20T07:57:23.735Z,11.83
2019-03-20T07:59:28.125Z,4.37
2019-03-20T08:01:32.478Z,6.27
2019-03-20T08:03:36.834Z,14.83
2019-03-20T08:05:41.255Z,12.40
2019-03-20T08:07:45.675Z,9.40
2019-03-20T08:09:50.064Z,10.50
2019-03-20T08:11:54.406Z,8.23
2019-03-20T08:13:58.802Z,13.90
2019-03-20T08:16:04.105Z,15.67
2019-03-20T08:18:07.603Z,12.93
2019-03-20T08:20:12.888Z,11.53
2019-03-20T08:22:17.329Z,11.17
2019-03-20T08:24:21.695Z,10.63
2019-03-20T08:26:26.126Z,6.40
2019-03-20T08:28:30.503Z,6.57
2019-03-20T08:30:34.893Z,4.83
2019-03-20T08:32:39.325Z,6.30
2019-03-20T08:34:43.760Z,10.07
2019-03-20T08:36:48.073Z,10.43
2019-03-20T08:38:52.418Z,16.20
2019-03-20T08:40:56.842Z,7.77
2019-03-20T08:43:01.223Z,9.40
2019-03-20T08:45:06.130Z,11.50
2019-03-20T08:47:10.500Z,6.17
2019-03-20T08:49:14.870Z,11.43
2019-03-20T08:51:19.254Z,9.57
2019-03-20T08:53:23.642Z,8.43
2019-03-20T08:55:28.012Z,11.27
2019-03-20T08:57:32.379Z,14.37
2019-03-20T08:59:36.715Z,7.53
2019-03-20T09:01:41.188Z,11.83
2019-03-20T09:03:45.577Z,10.03
2019-03-20T09:05:49.987Z,14.77
2019-03-20T09:07:54.377Z,7.17
2019-03-20T09:09:58.763Z,10.47
2019-03-20T09:12:03.134Z,4.67
2019-03-20T09:14:07.530Z,10.60
2019-03-20T09:16:11.898Z,11.30
2019-03-20T09:18:16.270Z,10.87
2019-03-20T09:20:20.696Z,10.27
2019-03-20T09:22:25.370Z,8.67
2019-03-20T09:24:29.747Z,13.77
2019-03-20T09:26:34.155Z,8.37
2019-03-20T09:28:38.566Z,10.90
2019-03-20T09:30:42.990Z,11.37
2019-03-20T09:32:47.398Z,12.23
2019-03-20T09:34:51.822Z,11.17
2019-03-20T09:36:56.317Z,9.10
2019-03-20T09:39:00.832Z,2.53
2019-03-20T09:41:05.364Z,11.00
2019-03-20T09:43:11.455Z,1.90
2019-03-20T09:45:16.252Z,8.07
2019-03-20T09:47:20.641Z,4.37
2019-03-20T09:49:25.028Z,9.80
2019-03-20T09:51:29.430Z,6.23
2019-03-20T09:53:33.773Z,6.50
2019-03-20T09:55:38.161Z,8.87
2019-03-20T09:57:42.632Z,6.30
2019-03-20T09:59:47.032Z,7.13
2019-03-20T10:01:51.387Z,7.33
2019-03-20T10:03:55.789Z,11.33
2019-03-20T10:06:00.201Z,10.93
2019-03-20T10:08:04.694Z,14.37
2019-03-20T10:10:09.708Z,10.93
2019-03-20T10:12:14.145Z,4.43
2019-03-20T10:14:18.476Z,14.37
2019-03-20T10:16:22.851Z,8.50
2019-03-20T10:18:27.325Z,10.40
2019-03-20T10:20:31.699Z,8.23
2019-03-20T10:22:36.082Z,7.13
2019-03-20T10:24:40.457Z,8.93
2019-03-20T10:26:44.842Z,12.47
2019-03-20T10:28:49.246Z,11.30
2019-03-20T10:30:53.646Z,6.17
2019-03-20T10:32:58.043Z,12.40
2019-03-20T10:35:02.413Z,6.03
2019-03-20T10:37:06.792Z,13.50
2019-03-20T10:39:11.300Z,9.00
2019-03-20T10:41:15.591Z,9.87
2019-03-20T10:43:19.979Z,9.27
2019-03-20T10:45:24.450Z,14.27
2019-03-20T10:47:28.857Z,12.60
2019-03-20T10:49:33.293Z,5.80
2019-03-20T10:51:37.643Z,8.33
2019-03-20T10:53:42.034Z,8.97
2019-03-20T10:55:46.398Z,8.73
2019-03-20T10:57:56.103Z,5.77
2019-03-20T11:00:00.480Z,8.30
2019-03-20T11:02:04.946Z,11.47
2019-03-20T11:04:09.366Z,15.30
2019-03-20T11:06:13.747Z,12.10
2019-03-20T11:08:18.207Z,11.43
2019-03-20T11:10:23.018Z,18.63
2019-03-20T11:12:27.403Z,13.20
2019-03-20T11:14:31.803Z,13.90
2019-03-20T11:16:36.212Z,6.77
2019-03-20T11:18:40.696Z,16.17
2019-03-20T11:20:45.073Z,10.60
2019-03-20T11:22:49.520Z,8.90
2019-03-20T11:24:53.905Z,6.97
2019-03-20T11:26:58.302Z,11.03
2019-03-20T11:29:02.670Z,5.57
2019-03-20T11:31:07.130Z,6.93
2019-03-20T11:33:11.592Z,10.07
2019-03-20T11:35:17.048Z,7.90
2019-03-20T11:37:21.464Z,5.97
2019-03-20T11:39:29.959Z,7.37
2019-03-20T11:41:30.353Z,7.53
2019-03-20T11:43:35.440Z,7.03
2019-03-20T11:45:39.834Z,6.87
2019-03-20T11:47:44.207Z,7.00
2019-03-20T11:49:48.603Z,7.00
2019-03-20T11:51:53.007Z,3.83
2019-03-20T11:53:57.379Z,4.67
2019-03-20T11:56:01.808Z,4.17
2019-03-20T11:58:06.285Z,4.10
2019-03-20T12:00:16.211Z,2.67
2019-03-20T12:02:27.952Z,3.93
2019-03-20T12:04:25.218Z,3.53
2019-03-20T12:06:29.542Z,4.50
2019-03-20T12:08:33.927Z,3.33
2019-03-20T12:10:38.284Z,2.57
2019-03-20T12:12:42.740Z,4.03
2019-03-20T12:14:48.125Z,2.63
2019-03-20T12:16:57.594Z,6.17
2019-03-20T12:19:02.292Z,1.63
2019-03-20T12:21:06.690Z,3.00
2019-03-20T12:23:11.125Z,1.83
2019-03-20T12:25:18.452Z,2.20
2019-03-20T12:27:22.786Z,2.07
2019-03-20T12:29:27.174Z,1.33
2019-03-20T12:31:31.490Z,2.63
2019-03-20T12:33:36.136Z,2.30
2019-03-20T12:35:40.529Z,4.13
2019-03-20T12:37:45.034Z,3.70
2019-03-20T12:39:53.462Z,2.13
2019-03-20T12:41:53.854Z,2.87
2019-03-20T12:43:58.247Z,1.40
2019-03-20T12:46:02.659Z,1.73
2019-03-20T12:48:07.227Z,4.60
2019-03-20T12:50:11.806Z,2.60
2019-03-20T12:52:16.206Z,2.47
2019-03-20T12:54:20.615Z,5.67
2019-03-20T12:56:25.087Z,2.67
2019-03-20T12:58:29.449Z,4.20
2019-03-20T13:00:33.817Z,1.67
2019-03-20T13:02:38.217Z,1.40
2019-03-20T13:04:42.609Z,3.97
2019-03-20T13:06:46.931Z,1.00
2019-03-20T13:08:51.334Z,2.87
2019-03-20T13:10:55.684Z,3.30
2019-03-20T13:13:00.173Z,3.03
2019-03-20T13:15:05.350Z,2.10
2019-03-20T13:17:09.899Z,2.27
2019-03-20T13:19:15.455Z,3.50
2019-03-20T13:21:19.835Z,7.73
2019-03-20T13:23:26.380Z,1.93
2019-03-20T13:25:30.810Z,2.27
2019-03-20T13:27:35.186Z,1.73
2019-03-20T13:29:39.541Z,2.23
2019-03-20T13:31:43.970Z,2.27
2019-03-20T13:33:49.279Z,1.60
2019-03-20T13:35:52.768Z,2.70
2019-03-20T13:37:57.102Z,5.20
2019-03-20T13:40:01.456Z,1.63
2019-03-20T13:42:05.855Z,6.03
2019-03-20T13:44:10.274Z,0.80
2019-03-20T13:46:14.642Z,6.23
2019-03-20T13:48:18.986Z,1.77
2019-03-20T13:50:23.354Z,2.30
2019-03-20T13:52:27.702Z,1.90
2019-03-20T13:54:32.107Z,2.80
2019-03-20T13:56:36.526Z,3.30
2019-03-20T13:58:40.924Z,1.53
2019-03-20T14:00:45.318Z,3.40
2019-03-20T14:02:49.690Z,1.17
2019-03-20T14:04:54.094Z,1.37
2019-03-20T14:06:58.495Z,7.50
2019-03-20T14:09:02.943Z,0.77
2019-03-20T14:23:32.693Z,2.93
2019-03-20T14:25:37.086Z,2.63
2019-03-20T14:27:41.537Z,1.80
2019-03-20T14:29:45.922Z,1.67
2019-03-20T14:31:50.305Z,1.57
2019-03-20T14:33:55.025Z,2.30
2019-03-20T14:35:59.436Z,3.27
2019-03-20T14:38:03.835Z,2.57
2019-03-20T14:40:09.383Z,2.93
2019-03-20T14:42:15.096Z,7.80
2019-03-20T14:44:19.465Z,9.97
2019-03-20T14:46:23.963Z,4.73
2019-03-20T14:48:28.380Z,3.67
2019-03-20T14:50:32.915Z,4.43
2019-03-20T14:52:37.313Z,1.73
2019-03-20T14:54:41.728Z,3.03
2019-03-20T14:56:46.158Z,3.33
2019-03-20T14:58:50.539Z,4.33
2019-03-20T15:00:54.993Z,4.17
2019-03-20T15:02:59.451Z,1.83
2019-03-20T15:05:04.336Z,2.70
2019-03-20T15:07:08.790Z,5.20
2019-03-20T15:09:13.263Z,3.30
2019-03-20T15:11:17.645Z,3.47
2019-03-20T15:13:22.548Z,3.00
2019-03-20T15:15:34.915Z,2.10
2019-03-20T15:17:39.401Z,3.50
2019-03-20T15:19:43.956Z,5.53
2019-03-20T15:21:48.423Z,3.83
2019-03-20T15:23:53.034Z,2.33
2019-03-20T15:25:57.471Z,2.77
2019-03-20T15:28:01.867Z,2.43
2019-03-20T15:30:08.396Z,3.37
2019-03-20T15:32:12.854Z,3.00
2019-03-20T15:34:17.205Z,5.13
2019-03-20T15:36:21.741Z,6.10
2019-03-20T15:38:26.124Z,6.43
2019-03-20T15:40:30.576Z,3.83
2019-03-20T15:42:35.141Z,5.53
2019-03-20T15:44:39.634Z,3.53
2019-03-20T15:46:44.112Z,3.53
2019-03-20T15:48:48.600Z,6.80
2019-03-20T15:50:53.050Z,5.13
2019-03-20T15:52:57.583Z,4.73
2019-03-20T15:55:02.066Z,3.20
2019-03-20T15:57:06.541Z,5.83
2019-03-20T15:59:10.980Z,4.40
2019-03-20T16:01:15.373Z,2.73
2019-03-20T16:03:20.550Z,2.57
2019-03-20T16:05:26.129Z,2.63
2019-03-20T16:07:30.503Z,3.33
2019-03-20T16:09:34.919Z,2.70
2019-03-20T16:11:39.281Z,5.17
2019-03-20T16:13:43.647Z,3.33
2019-03-20T16:15:48.061Z,8.33
2019-03-20T16:17:55.870Z,6.87
2019-03-20T16:20:00.312Z,5.63
2019-03-20T16:22:04.738Z,4.13
2019-03-20T16:24:09.134Z,7.07
2019-03-20T16:26:13.550Z,4.87
2019-03-20T16:28:17.945Z,4.90
2019-03-20T16:30:22.843Z,4.57
2019-03-20T16:32:27.189Z,9.43
2019-03-20T16:34:32.423Z,6.20
2019-03-20T16:36:36.770Z,10.30
2019-03-20T16:38:41.687Z,4.60
2019-03-20T16:40:46.091Z,6.93
2019-03-20T16:42:50.930Z,7.10
2019-03-20T16:44:55.875Z,5.23
2019-03-20T16:47:00.371Z,7.93
2019-03-20T16:49:04.775Z,4.33
2019-03-20T16:51:09.194Z,7.93
2019-03-20T16:53:20.089Z,4.30
2019-03-20T16:55:24.498Z,4.00
2019-03-20T16:57:30.133Z,7.43
2019-03-20T16:59:34.507Z,6.13
2019-03-20T17:01:38.998Z,7.27
2019-03-20T17:03:43.343Z,9.77
2019-03-20T17:05:47.784Z,7.70
2019-03-20T17:07:52.248Z,5.47
2019-03-20T17:09:56.834Z,5.47
2019-03-20T17:12:01.390Z,5.67
2019-03-20T17:14:05.853Z,9.50
2019-03-20T17:16:12.012Z,11.90
2019-03-20T17:18:17.272Z,7.43
2019-03-20T17:20:21.626Z,6.03
2019-03-20T17:22:26.023Z,4.87
2019-03-20T17:24:30.692Z,5.57
2019-03-20T17:26:35.048Z,9.37
2019-03-20T17:28:39.593Z,4.77
2019-03-20T17:30:44.084Z,8.93
2019-03-20T17:32:48.538Z,4.97
2019-03-20T17:34:52.953Z,9.17
2019-03-20T17:36:57.342Z,7.07
2019-03-20T17:39:01.771Z,10.77
2019-03-20T17:41:07.143Z,5.00
2019-03-20T17:43:11.609Z,8.13
2019-03-20T17:45:16.644Z,5.87
2019-03-20T17:47:21.051Z,6.83
2019-03-20T17:49:25.506Z,4.93
2019-03-20T17:51:29.887Z,10.17
2019-03-20T17:53:34.274Z,5.73
2019-03-20T17:55:38.731Z,5.30
2019-03-20T17:57:43.119Z,5.27
2019-03-20T17:59:47.560Z,3.87
2019-03-20T18:01:51.976Z,3.20
2019-03-20T18:03:56.431Z,4.33
2019-03-20T18:06:00.830Z,6.10
2019-03-20T18:08:05.424Z,3.93
2019-03-20T18:10:09.820Z,9.53
2019-03-20T18:12:14.431Z,5.37
2019-03-20T18:14:18.798Z,7.97
2019-03-20T18:16:23.254Z,9.20
2019-03-20T18:18:27.630Z,8.27
2019-03-20T18:20:32.010Z,5.30
2019-03-20T18:22:36.427Z,8.63
2019-03-20T18:24:40.806Z,8.77
2019-03-20T18:26:45.185Z,9.07
2019-03-20T18:28:49.638Z,5.37
2019-03-20T18:30:54.113Z,7.60
2019-03-20T18:32:58.492Z,6.73
2019-03-20T18:35:03.025Z,6.90
2019-03-20T18:37:07.440Z,9.73
2019-03-20T18:39:11.903Z,10.63
2019-03-20T18:41:16.346Z,7.40
2019-03-20T18:43:20.755Z,13.53
2019-03-20T18:45:26.222Z,9.43
2019-03-20T18:47:30.622Z,9.77
2019-03-20T18:49:35.007Z,6.67
2019-03-20T18:51:39.433Z,12.57
2019-03-20T18:53:44.590Z,6.23
2019-03-20T18:55:50.649Z,8.47
2019-03-20T18:57:55.199Z,10.23
2019-03-20T18:59:59.587Z,11.83
2019-03-20T19:02:04.036Z,3.53
2019-03-20T19:04:08.472Z,7.50
2019-03-20T19:06:18.649Z,5.40
2019-03-20T19:08:23.091Z,6.30
2019-03-20T19:10:27.557Z,6.50
2019-03-20T19:12:32.438Z,9.30
2019-03-20T19:14:36.890Z,9.87
2019-03-20T19:16:41.296Z,4.70
2019-03-20T19:18:45.732Z,6.90
2019-03-20T19:20:50.165Z,6.27
2019-03-20T19:22:54.618Z,8.03
2019-03-20T19:24:59.026Z,8.87
2019-03-20T19:27:03.514Z,8.03
2019-03-20T19:29:08.010Z,9.07
2019-03-20T19:31:12.440Z,8.77
2019-03-20T19:33:16.846Z,8.50
2019-03-20T19:35:22.247Z,8.77
2019-03-20T19:37:26.662Z,10.67
2019-03-20T19:39:31.099Z,8.70
2019-03-20T19:41:35.498Z,7.00
2019-03-20T19:43:39.960Z,7.80
2019-03-20T19:45:44.389Z,8.00
2019-03-20T19:47:48.825Z,9.20
2019-03-20T19:49:53.234Z,8.43
2019-03-20T19:51:57.601Z,8.30
2019-03-20T19:54:01.980Z,7.60
2019-03-20T19:56:06.419Z,8.97
2019-03-20T19:58:10.808Z,11.63
2019-03-20T20:00:15.731Z,9.17
2019-03-20T20:02:20.995Z,6.70
2019-03-20T20:04:25.426Z,7.23
2019-03-20T20:06:29.815Z,8.67
2019-03-20T20:08:34.283Z,6.87
2019-03-20T20:10:38.810Z,9.67
2019-03-20T20:12:43.259Z,6.70
2019-03-20T20:14:47.662Z,5.70
2019-03-20T20:16:52.040Z,7.17
2019-03-20T20:18:56.483Z,10.33
2019-03-20T20:21:00.853Z,8.67
2019-03-20T20:25:32.379Z,7.40
2019-03-20T20:27:36.784Z,9.67
2019-03-20T20:29:41.231Z,5.50
2019-03-20T20:31:45.623Z,7.60
2019-03-20T20:33:52.491Z,9.97
2019-03-20T20:35:56.945Z,10.87
2019-03-20T20:38:01.358Z,6.40
2019-03-20T20:40:06.446Z,7.30
2019-03-20T20:42:10.844Z,9.53
2019-03-20T20:44:15.239Z,10.17
2019-03-20T20:46:19.628Z,7.53
2019-03-20T20:48:24.047Z,11.20
2019-03-20T20:50:28.501Z,8.17
2019-03-20T20:52:33.075Z,10.07
2019-03-20T20:54:38.542Z,9.83
2019-03-20T20:56:43.030Z,7.37
2019-03-20T20:58:47.408Z,14.07
2019-03-20T21:00:51.990Z,6.87
2019-03-20T21:02:56.414Z,13.40
2019-03-20T21:05:00.842Z,8.87
2019-03-20T21:07:05.293Z,7.80
2019-03-20T21:09:09.746Z,12.83
2019-03-20T21:11:14.190Z,5.83
2019-03-20T21:13:18.600Z,7.63
2019-03-20T21:23:57.607Z,7.97
2019-03-20T21:30:02.255Z,14.93
2019-03-20T21:36:53.613Z,12.00
2019-03-20T21:41:49.164Z,9.13
2019-03-20T22:01:13.161Z,6.07
2019-03-20T22:10:17.126Z,9.40
2019-03-20T22:17:02.776Z,17.80
2019-03-20T22:21:23.692Z,9.43
2019-03-20T22:34:03.088Z,10.13
2019-03-20T22:43:30.546Z,7.90
2019-03-20T22:48:02.929Z,7.43
